sensor_id;sensor_type;location;lat;lon;timestamp;P1;durP1;ratioP1;P2;durP2;ratioP2
11135;SDS011;5622;50.840;4.948;2023-11-19T07:09:26;24.67;;;5.50;;
11135;SDS011;5622;50.840;4.948;2023-11-19T07:11:53;21.53;;;6.00;;
11135;SDS011;5622;50.840;4.948;2023-11-19T07:14:27;31.67;;;4.80;;
11135;SDS011;5622;50.840;4.948;2023-11-19T07:16:54;25.50;;;5.20;;
11135;SDS011;5622;50.840;4.948;2023-11-19T07:19:21;21.80;;;5.03;;
11135;SDS011;5622;50.840;4.948;2023-11-19T07:21:48;24.03;;;6.00;;
11135;SDS011;5622;50.840;4.948;2023-11-19T07:24:16;31.20;;;5.53;;
11135;SDS011;5622;50.840;4.948;2023-11-19T07:26:46;26.43;;;4.97;;
11135;SDS011;5622;50.840;4.948;2023-11-19T07:29:14;24.97;;;5.73;;
11135;SDS011;5622;50.840;4.948;2023-11-19T07:31:41;25.37;;;5.23;;
11135;SDS011;5622;50.840;4.948;2023-11-19T07:34:09;24.27;;;5.43;;
11135;SDS011;5622;50.840;4.948;2023-11-19T07:36:37;27.50;;;6.63;;
11135;SDS011;5622;50.840;4.948;2023-11-19T07:39:04;20.43;;;5.17;;
11135;SDS011;5622;50.840;4.948;2023-11-19T07:41:31;29.27;;;4.83;;
11135;SDS011;5622;50.840;4.948;2023-11-19T07:44:00;29.27;;;6.27;;
11135;SDS011;5622;50.840;4.948;2023-11-19T07:46:29;24.07;;;5.37;;
11135;SDS011;5622;50.840;4.948;2023-11-19T07:48:57;23.77;;;5.20;;
11135;SDS011;5622;50.840;4.948;2023-11-19T07:51:24;26.97;;;6.10;;
11135;SDS011;5622;50.840;4.948;2023-11-19T07:53:51;27.50;;;6.27;;
11135;SDS011;5622;50.840;4.948;2023-11-19T07:56:18;28.73;;;5.63;;
11135;SDS011;5622;50.840;4.948;2023-11-19T07:58:46;35.20;;;6.80;;
11135;SDS011;5622;50.840;4.948;2023-11-19T08:01:16;32.43;;;6.17;;
11135;SDS011;5622;50.840;4.948;2023-11-19T08:03:45;29.70;;;5.30;;
11135;SDS011;5622;50.840;4.948;2023-11-19T08:06:12;23.83;;;5.20;;
11135;SDS011;5622;50.840;4.948;2023-11-19T08:08:39;30.10;;;5.90;;
11135;SDS011;5622;50.840;4.948;2023-11-19T08:11:08;28.83;;;5.43;;
11135;SDS011;5622;50.840;4.948;2023-11-19T08:13:35;27.77;;;5.27;;
11135;SDS011;5622;50.840;4.948;2023-11-19T08:16:02;26.73;;;5.80;;
11135;SDS011;5622;50.840;4.948;2023-11-19T08:18:31;30.27;;;5.97;;
11135;SDS011;5622;50.840;4.948;2023-11-19T08:20:58;34.03;;;7.27;;
11135;SDS011;5622;50.840;4.948;2023-11-19T08:23:26;25.53;;;4.93;;
11135;SDS011;5622;50.840;4.948;2023-11-19T08:25:54;28.67;;;4.73;;
11135;SDS011;5622;50.840;4.948;2023-11-19T08:28:21;33.77;;;6.03;;
11135;SDS011;5622;50.840;4.948;2023-11-19T08:30:48;20.83;;;5.20;;
11135;SDS011;5622;50.840;4.948;2023-11-19T08:33:15;27.23;;;5.13;;
11135;SDS011;5622;50.840;4.948;2023-11-19T08:35:44;23.10;;;4.67;;
11135;SDS011;5622;50.840;4.948;2023-11-19T08:38:12;25.43;;;6.17;;
11135;SDS011;5622;50.840;4.948;2023-11-19T08:40:39;25.27;;;4.27;;
11135;SDS011;5622;50.840;4.948;2023-11-19T08:43:06;23.57;;;5.30;;
11135;SDS011;5622;50.840;4.948;2023-11-19T08:45:36;20.87;;;4.70;;
11135;SDS011;5622;50.840;4.948;2023-11-19T08:48:05;18.57;;;3.97;;
11135;SDS011;5622;50.840;4.948;2023-11-19T08:50:33;28.43;;;4.50;;
11135;SDS011;5622;50.840;4.948;2023-11-19T08:53:01;28.33;;;5.07;;
11135;SDS011;5622;50.840;4.948;2023-11-19T08:55:32;30.87;;;6.17;;
11135;SDS011;5622;50.840;4.948;2023-11-19T08:57:59;19.80;;;4.97;;
11135;SDS011;5622;50.840;4.948;2023-11-19T09:00:27;24.17;;;5.67;;
11135;SDS011;5622;50.840;4.948;2023-11-19T09:02:55;19.83;;;4.50;;
11135;SDS011;5622;50.840;4.948;2023-11-19T09:05:25;23.53;;;4.57;;
11135;SDS011;5622;50.840;4.948;2023-11-19T09:07:53;18.97;;;3.87;;
11135;SDS011;5622;50.840;4.948;2023-11-19T09:10:24;29.10;;;5.73;;
11135;SDS011;5622;50.840;4.948;2023-11-19T09:12:52;22.93;;;5.17;;
11135;SDS011;5622;50.840;4.948;2023-11-19T09:15:19;28.37;;;5.27;;
11135;SDS011;5622;50.840;4.948;2023-11-19T09:17:49;23.07;;;4.63;;
11135;SDS011;5622;50.840;4.948;2023-11-19T09:20:16;28.00;;;4.57;;
11135;SDS011;5622;50.840;4.948;2023-11-19T09:22:43;25.63;;;4.43;;
11135;SDS011;5622;50.840;4.948;2023-11-19T09:25:11;18.53;;;4.90;;
11135;SDS011;5622;50.840;4.948;2023-11-19T09:27:44;24.20;;;4.57;;
11135;SDS011;5622;50.840;4.948;2023-11-19T09:30:11;24.77;;;5.30;;
11135;SDS011;5622;50.840;4.948;2023-11-19T09:32:41;19.77;;;4.43;;
11135;SDS011;5622;50.840;4.948;2023-11-19T09:35:08;27.03;;;5.80;;
11135;SDS011;5622;50.840;4.948;2023-11-19T09:37:38;19.57;;;4.37;;
11135;SDS011;5622;50.840;4.948;2023-11-19T09:40:07;31.40;;;5.80;;
11135;SDS011;5622;50.840;4.948;2023-11-19T09:42:38;24.77;;;4.63;;
11135;SDS011;5622;50.840;4.948;2023-11-19T09:45:14;21.90;;;4.30;;
11135;SDS011;5622;50.840;4.948;2023-11-19T09:47:44;23.33;;;5.07;;
11135;SDS011;5622;50.840;4.948;2023-11-19T09:50:13;24.73;;;4.17;;
11135;SDS011;5622;50.840;4.948;2023-11-19T09:52:44;15.30;;;4.10;;
11135;SDS011;5622;50.840;4.948;2023-11-19T09:55:11;26.90;;;4.87;;
11135;SDS011;5622;50.840;4.948;2023-11-19T09:57:39;19.37;;;3.87;;
11135;SDS011;5622;50.840;4.948;2023-11-19T10:00:08;11.40;;;3.60;;
11135;SDS011;5622;50.840;4.948;2023-11-19T10:02:40;16.27;;;4.30;;
11135;SDS011;5622;50.840;4.948;2023-11-19T10:05:11;24.57;;;3.80;;
11135;SDS011;5622;50.840;4.948;2023-11-19T10:07:41;15.20;;;3.77;;
11135;SDS011;5622;50.840;4.948;2023-11-19T10:10:09;20.73;;;4.90;;
11135;SDS011;5622;50.840;4.948;2023-11-19T10:12:42;17.53;;;4.07;;
11135;SDS011;5622;50.840;4.948;2023-11-19T10:15:15;20.47;;;5.33;;
11135;SDS011;5622;50.840;4.948;2023-11-19T10:17:46;16.57;;;3.93;;
11135;SDS011;5622;50.840;4.948;2023-11-19T10:20:13;20.30;;;4.30;;
11135;SDS011;5622;50.840;4.948;2023-11-19T10:22:40;21.77;;;4.47;;
11135;SDS011;5622;50.840;4.948;2023-11-19T10:25:12;18.60;;;4.40;;
11135;SDS011;5622;50.840;4.948;2023-11-19T10:27:48;17.37;;;4.83;;
11135;SDS011;5622;50.840;4.948;2023-11-19T10:30:18;18.77;;;4.60;;
11135;SDS011;5622;50.840;4.948;2023-11-19T10:33:02;21.43;;;3.70;;
11135;SDS011;5622;50.840;4.948;2023-11-19T10:35:31;18.47;;;4.00;;
11135;SDS011;5622;50.840;4.948;2023-11-19T10:37:59;18.23;;;4.10;;
11135;SDS011;5622;50.840;4.948;2023-11-19T10:40:37;20.57;;;4.57;;
11135;SDS011;5622;50.840;4.948;2023-11-19T10:43:06;28.30;;;4.97;;
11135;SDS011;5622;50.840;4.948;2023-11-19T10:45:35;25.70;;;6.03;;
11135;SDS011;5622;50.840;4.948;2023-11-19T10:48:04;20.53;;;4.93;;
11135;SDS011;5622;50.840;4.948;2023-11-19T10:50:32;25.03;;;5.07;;
11135;SDS011;5622;50.840;4.948;2023-11-19T10:53:02;25.27;;;5.73;;
11135;SDS011;5622;50.840;4.948;2023-11-19T10:55:30;21.80;;;6.27;;
11135;SDS011;5622;50.840;4.948;2023-11-19T10:57:59;26.33;;;6.30;;
11135;SDS011;5622;50.840;4.948;2023-11-19T11:00:43;21.70;;;5.50;;
11135;SDS011;5622;50.840;4.948;2023-11-19T11:03:15;24.77;;;6.57;;
11135;SDS011;5622;50.840;4.948;2023-11-19T11:05:44;20.00;;;5.10;;
11135;SDS011;5622;50.840;4.948;2023-11-19T11:08:13;19.43;;;4.17;;
11135;SDS011;5622;50.840;4.948;2023-11-19T11:10:43;14.97;;;3.73;;
11135;SDS011;5622;50.840;4.948;2023-11-19T11:13:14;20.17;;;4.57;;
11135;SDS011;5622;50.840;4.948;2023-11-19T11:15:42;15.10;;;3.57;;
11135;SDS011;5622;50.840;4.948;2023-11-19T11:18:13;17.60;;;4.00;;
11135;SDS011;5622;50.840;4.948;2023-11-19T11:20:40;16.53;;;3.50;;
11135;SDS011;5622;50.840;4.948;2023-11-19T11:23:21;14.83;;;3.57;;
11135;SDS011;5622;50.840;4.948;2023-11-19T11:26:14;19.73;;;4.30;;
11135;SDS011;5622;50.840;4.948;2023-11-19T11:28:54;19.63;;;4.33;;
11135;SDS011;5622;50.840;4.948;2023-11-19T11:31:31;16.90;;;4.57;;
11135;SDS011;5622;50.840;4.948;2023-11-19T11:37:06;25.73;;;4.40;;
11135;SDS011;5622;50.840;4.948;2023-11-19T11:39:43;17.67;;;4.13;;
11135;SDS011;5622;50.840;4.948;2023-11-19T11:42:32;21.83;;;4.90;;
11135;SDS011;5622;50.840;4.948;2023-11-19T11:45:05;26.73;;;5.77;;
11135;SDS011;5622;50.840;4.948;2023-11-19T11:50:54;17.10;;;3.93;;
11135;SDS011;5622;50.840;4.948;2023-11-19T11:53:32;17.97;;;3.93;;
11135;SDS011;5622;50.840;4.948;2023-11-19T11:56:15;23.37;;;4.43;;
11135;SDS011;5622;50.840;4.948;2023-11-19T11:58:45;17.33;;;4.67;;
11135;SDS011;5622;50.840;4.948;2023-11-19T12:01:26;22.60;;;4.93;;
11135;SDS011;5622;50.840;4.948;2023-11-19T12:04:11;20.20;;;4.27;;
11135;SDS011;5622;50.840;4.948;2023-11-19T12:26:36;16.17;;;4.80;;
11135;SDS011;5622;50.840;4.948;2023-11-19T12:29:06;21.13;;;4.53;;
11135;SDS011;5622;50.840;4.948;2023-11-19T12:31:34;16.97;;;5.20;;
11135;SDS011;5622;50.840;4.948;2023-11-19T12:34:09;18.03;;;4.40;;
11135;SDS011;5622;50.840;4.948;2023-11-19T12:36:39;22.10;;;3.63;;
11135;SDS011;5622;50.840;4.948;2023-11-19T12:39:11;16.70;;;3.80;;
11135;SDS011;5622;50.840;4.948;2023-11-19T12:41:52;12.67;;;3.17;;
11135;SDS011;5622;50.840;4.948;2023-11-19T12:44:19;11.73;;;3.47;;
11135;SDS011;5622;50.840;4.948;2023-11-19T12:46:58;14.13;;;3.80;;
11135;SDS011;5622;50.840;4.948;2023-11-19T12:49:27;15.93;;;4.73;;
11135;SDS011;5622;50.840;4.948;2023-11-19T12:51:54;19.00;;;3.73;;
11135;SDS011;5622;50.840;4.948;2023-11-19T12:54:31;14.27;;;3.87;;
11135;SDS011;5622;50.840;4.948;2023-11-19T12:57:00;19.60;;;4.00;;
11135;SDS011;5622;50.840;4.948;2023-11-19T12:59:28;14.57;;;3.93;;
11135;SDS011;5622;50.840;4.948;2023-11-19T13:01:55;14.30;;;3.47;;
11135;SDS011;5622;50.840;4.948;2023-11-19T13:04:27;17.60;;;4.23;;
11135;SDS011;5622;50.840;4.948;2023-11-19T13:06:56;18.60;;;4.30;;
11135;SDS011;5622;50.840;4.948;2023-11-19T13:09:24;15.50;;;3.90;;
11135;SDS011;5622;50.840;4.948;2023-11-19T13:11:55;21.10;;;4.57;;
11135;SDS011;5622;50.840;4.948;2023-11-19T13:14:35;22.27;;;4.17;;
11135;SDS011;5622;50.840;4.948;2023-11-19T13:17:03;25.50;;;4.13;;
11135;SDS011;5622;50.840;4.948;2023-11-19T13:19:31;17.97;;;4.33;;
11135;SDS011;5622;50.840;4.948;2023-11-19T13:21:58;12.93;;;3.93;;
11135;SDS011;5622;50.840;4.948;2023-11-19T13:24:25;11.93;;;3.23;;
11135;SDS011;5622;50.840;4.948;2023-11-19T13:26:54;15.70;;;3.80;;
11135;SDS011;5622;50.840;4.948;2023-11-19T13:29:21;15.53;;;4.30;;
11135;SDS011;5622;50.840;4.948;2023-11-19T13:31:50;16.17;;;4.10;;
11135;SDS011;5622;50.840;4.948;2023-11-19T13:34:17;16.43;;;4.37;;
11135;SDS011;5622;50.840;4.948;2023-11-19T13:36:44;18.33;;;4.23;;
11135;SDS011;5622;50.840;4.948;2023-11-19T13:39:11;20.40;;;4.27;;
11135;SDS011;5622;50.840;4.948;2023-11-19T13:41:48;16.80;;;6.20;;
11135;SDS011;5622;50.840;4.948;2023-11-19T13:44:15;19.57;;;4.73;;
11135;SDS011;5622;50.840;4.948;2023-11-19T13:46:44;21.13;;;5.60;;
11135;SDS011;5622;50.840;4.948;2023-11-19T13:49:13;15.23;;;3.67;;
11135;SDS011;5622;50.840;4.948;2023-11-19T13:54:13;25.83;;;5.33;;
11135;SDS011;5622;50.840;4.948;2023-11-19T14:00:05;14.77;;;3.57;;
11135;SDS011;5622;50.840;4.948;2023-11-19T14:02:37;16.83;;;4.20;;
11135;SDS011;5622;50.840;4.948;2023-11-19T14:05:10;18.20;;;3.63;;
11135;SDS011;5622;50.840;4.948;2023-11-19T14:11:27;19.73;;;4.20;;
11135;SDS011;5622;50.840;4.948;2023-11-19T14:17:35;16.37;;;3.90;;
11135;SDS011;5622;50.840;4.948;2023-11-19T14:29:41;18.43;;;3.77;;
11135;SDS011;5622;50.840;4.948;2023-11-19T14:35:34;25.10;;;5.53;;
11135;SDS011;5622;50.840;4.948;2023-11-19T14:38:02;26.23;;;9.37;;
11135;SDS011;5622;50.840;4.948;2023-11-19T14:40:33;27.27;;;9.37;;
11135;SDS011;5622;50.840;4.948;2023-11-19T14:43:01;27.73;;;6.00;;
11135;SDS011;5622;50.840;4.948;2023-11-19T14:45:42;25.13;;;7.73;;
11135;SDS011;5622;50.840;4.948;2023-11-19T14:48:10;20.50;;;7.97;;
11135;SDS011;5622;50.840;4.948;2023-11-19T14:50:38;24.10;;;6.37;;
11135;SDS011;5622;50.840;4.948;2023-11-19T14:53:25;17.47;;;5.17;;
11135;SDS011;5622;50.840;4.948;2023-11-19T15:12:36;22.83;;;7.07;;
11135;SDS011;5622;50.840;4.948;2023-11-19T15:18:44;32.37;;;9.77;;
11135;SDS011;5622;50.840;4.948;2023-11-19T15:56:23;18.43;;;4.10;;
11135;SDS011;5622;50.840;4.948;2023-11-19T16:14:36;23.63;;;4.57;;
11135;SDS011;5622;50.840;4.948;2023-11-19T16:17:04;23.67;;;6.37;;
11135;SDS011;5622;50.840;4.948;2023-11-19T16:19:31;27.10;;;7.27;;
11135;SDS011;5622;50.840;4.948;2023-11-19T16:22:01;13.50;;;5.70;;
11135;SDS011;5622;50.840;4.948;2023-11-19T16:24:36;16.80;;;5.27;;
11135;SDS011;5622;50.840;4.948;2023-11-19T16:27:03;16.33;;;5.40;;
11135;SDS011;5622;50.840;4.948;2023-11-19T16:29:31;19.93;;;5.63;;
11135;SDS011;5622;50.840;4.948;2023-11-19T16:31:58;19.83;;;5.17;;
11135;SDS011;5622;50.840;4.948;2023-11-19T16:34:25;17.33;;;4.67;;
11135;SDS011;5622;50.840;4.948;2023-11-19T16:36:52;17.90;;;5.80;;
11135;SDS011;5622;50.840;4.948;2023-11-19T16:39:19;16.60;;;4.80;;
11135;SDS011;5622;50.840;4.948;2023-11-19T16:41:50;19.33;;;4.63;;
11135;SDS011;5622;50.840;4.948;2023-11-19T16:44:17;18.33;;;4.43;;
11135;SDS011;5622;50.840;4.948;2023-11-19T16:46:44;19.90;;;4.20;;
11135;SDS011;5622;50.840;4.948;2023-11-19T16:49:11;15.27;;;3.93;;
11135;SDS011;5622;50.840;4.948;2023-11-19T16:51:38;15.77;;;4.30;;
11135;SDS011;5622;50.840;4.948;2023-11-19T16:54:12;22.83;;;5.10;;
11135;SDS011;5622;50.840;4.948;2023-11-19T16:56:42;17.03;;;3.90;;
11135;SDS011;5622;50.840;4.948;2023-11-19T16:59:11;12.73;;;4.43;;
11135;SDS011;5622;50.840;4.948;2023-11-19T17:01:40;16.90;;;4.27;;
11135;SDS011;5622;50.840;4.948;2023-11-19T17:04:07;18.27;;;4.33;;
11135;SDS011;5622;50.840;4.948;2023-11-19T17:06:34;18.20;;;5.57;;
11135;SDS011;5622;50.840;4.948;2023-11-19T17:09:07;20.80;;;4.67;;
11135;SDS011;5622;50.840;4.948;2023-11-19T17:11:37;27.60;;;5.17;;
11135;SDS011;5622;50.840;4.948;2023-11-19T17:14:06;17.13;;;4.13;;
11135;SDS011;5622;50.840;4.948;2023-11-19T17:16:35;19.80;;;4.17;;
11135;SDS011;5622;50.840;4.948;2023-11-19T17:19:04;20.70;;;4.80;;
11135;SDS011;5622;50.840;4.948;2023-11-19T17:21:31;14.33;;;4.20;;
11135;SDS011;5622;50.840;4.948;2023-11-19T17:23:58;19.10;;;4.03;;
11135;SDS011;5622;50.840;4.948;2023-11-19T17:26:26;13.30;;;3.83;;
11135;SDS011;5622;50.840;4.948;2023-11-19T17:28:53;15.93;;;4.60;;
11135;SDS011;5622;50.840;4.948;2023-11-19T17:31:22;15.37;;;6.83;;
11135;SDS011;5622;50.840;4.948;2023-11-19T17:33:51;22.53;;;4.77;;
11135;SDS011;5622;50.840;4.948;2023-11-19T17:36:20;18.13;;;5.17;;
11135;SDS011;5622;50.840;4.948;2023-11-19T17:38:47;17.47;;;5.40;;
11135;SDS011;5622;50.840;4.948;2023-11-19T17:41:14;13.13;;;4.80;;
11135;SDS011;5622;50.840;4.948;2023-11-19T17:43:41;25.00;;;4.70;;
11135;SDS011;5622;50.840;4.948;2023-11-19T17:46:08;21.70;;;4.40;;
11135;SDS011;5622;50.840;4.948;2023-11-19T17:48:36;17.07;;;4.27;;
11135;SDS011;5622;50.840;4.948;2023-11-19T17:51:04;20.83;;;5.00;;
11135;SDS011;5622;50.840;4.948;2023-11-19T17:53:33;20.60;;;4.80;;
11135;SDS011;5622;50.840;4.948;2023-11-19T17:56:02;18.07;;;4.53;;
11135;SDS011;5622;50.840;4.948;2023-11-19T17:58:30;14.60;;;4.03;;
11135;SDS011;5622;50.840;4.948;2023-11-19T18:00:57;20.10;;;5.00;;
11135;SDS011;5622;50.840;4.948;2023-11-19T18:03:24;17.13;;;4.10;;
11135;SDS011;5622;50.840;4.948;2023-11-19T18:05:54;22.00;;;5.10;;
11135;SDS011;5622;50.840;4.948;2023-11-19T18:08:24;20.67;;;4.70;;
11135;SDS011;5622;50.840;4.948;2023-11-19T18:10:52;19.73;;;4.10;;
11135;SDS011;5622;50.840;4.948;2023-11-19T18:13:22;18.03;;;4.30;;
11135;SDS011;5622;50.840;4.948;2023-11-19T18:15:50;18.87;;;5.07;;
11135;SDS011;5622;50.840;4.948;2023-11-19T18:18:18;17.13;;;3.93;;
11135;SDS011;5622;50.840;4.948;2023-11-19T18:20:46;12.37;;;4.00;;
11135;SDS011;5622;50.840;4.948;2023-11-19T18:23:15;14.67;;;3.70;;
11135;SDS011;5622;50.840;4.948;2023-11-19T18:25:43;14.13;;;3.57;;
11135;SDS011;5622;50.840;4.948;2023-11-19T18:28:11;16.67;;;3.90;;
11135;SDS011;5622;50.840;4.948;2023-11-19T18:30:41;16.00;;;3.80;;
11135;SDS011;5622;50.840;4.948;2023-11-19T18:33:08;11.97;;;3.20;;
11135;SDS011;5622;50.840;4.948;2023-11-19T18:35:36;10.17;;;2.90;;
11135;SDS011;5622;50.840;4.948;2023-11-19T18:38:03;12.20;;;4.07;;
11135;SDS011;5622;50.840;4.948;2023-11-19T18:40:32;13.50;;;3.93;;
11135;SDS011;5622;50.840;4.948;2023-11-19T18:43:02;15.67;;;4.07;;
11135;SDS011;5622;50.840;4.948;2023-11-19T18:45:29;15.87;;;3.60;;
11135;SDS011;5622;50.840;4.948;2023-11-19T18:47:59;15.10;;;3.47;;
11135;SDS011;5622;50.840;4.948;2023-11-19T18:50:26;12.43;;;3.50;;
11135;SDS011;5622;50.840;4.948;2023-11-19T18:52:53;17.73;;;3.83;;
11135;SDS011;5622;50.840;4.948;2023-11-19T18:55:22;13.00;;;3.90;;
11135;SDS011;5622;50.840;4.948;2023-11-19T18:57:49;16.23;;;4.27;;
11135;SDS011;5622;50.840;4.948;2023-11-19T19:00:18;11.50;;;3.53;;
11135;SDS011;5622;50.840;4.948;2023-11-19T19:02:48;13.87;;;4.17;;
11135;SDS011;5622;50.840;4.948;2023-11-19T19:05:15;17.77;;;4.60;;
11135;SDS011;5622;50.840;4.948;2023-11-19T19:07:43;19.23;;;5.20;;
11135;SDS011;5622;50.840;4.948;2023-11-19T19:10:13;14.67;;;3.97;;
11135;SDS011;5622;50.840;4.948;2023-11-19T19:12:41;21.30;;;4.50;;
11135;SDS011;5622;50.840;4.948;2023-11-19T19:15:09;19.10;;;3.83;;
11135;SDS011;5622;50.840;4.948;2023-11-19T19:17:39;13.70;;;4.93;;
11135;SDS011;5622;50.840;4.948;2023-11-19T19:20:07;12.77;;;3.67;;
11135;SDS011;5622;50.840;4.948;2023-11-19T19:22:35;13.30;;;4.30;;
11135;SDS011;5622;50.840;4.948;2023-11-19T19:25:05;16.23;;;3.80;;
11135;SDS011;5622;50.840;4.948;2023-11-19T19:27:32;10.90;;;3.80;;
11135;SDS011;5622;50.840;4.948;2023-11-19T19:30:01;11.83;;;3.63;;
11135;SDS011;5622;50.840;4.948;2023-11-19T19:32:31;15.80;;;4.73;;
11135;SDS011;5622;50.840;4.948;2023-11-19T19:34:59;11.90;;;4.17;;
11135;SDS011;5622;50.840;4.948;2023-11-19T19:37:29;13.40;;;3.53;;
11135;SDS011;5622;50.840;4.948;2023-11-19T19:39:58;13.13;;;3.80;;
11135;SDS011;5622;50.840;4.948;2023-11-19T19:42:29;17.37;;;3.93;;
11135;SDS011;5622;50.840;4.948;2023-11-19T19:44:56;10.90;;;3.37;;
11135;SDS011;5622;50.840;4.948;2023-11-19T19:47:23;14.67;;;4.60;;
11135;SDS011;5622;50.840;4.948;2023-11-19T19:49:52;17.33;;;4.57;;
11135;SDS011;5622;50.840;4.948;2023-11-19T19:52:21;14.17;;;5.10;;
11135;SDS011;5622;50.840;4.948;2023-11-19T19:54:48;12.63;;;3.30;;
11135;SDS011;5622;50.840;4.948;2023-11-19T19:57:17;12.20;;;4.97;;
11135;SDS011;5622;50.840;4.948;2023-11-19T19:59:45;15.77;;;4.17;;
11135;SDS011;5622;50.840;4.948;2023-11-19T20:02:15;15.23;;;3.70;;
11135;SDS011;5622;50.840;4.948;2023-11-19T20:04:43;17.10;;;3.70;;
11135;SDS011;5622;50.840;4.948;2023-11-19T20:07:12;15.90;;;4.03;;
11135;SDS011;5622;50.840;4.948;2023-11-19T20:09:41;12.33;;;3.33;;
11135;SDS011;5622;50.840;4.948;2023-11-19T20:12:08;16.27;;;3.57;;
11135;SDS011;5622;50.840;4.948;2023-11-19T20:14:35;14.87;;;4.10;;
11135;SDS011;5622;50.840;4.948;2023-11-19T20:17:03;11.53;;;3.23;;
11135;SDS011;5622;50.840;4.948;2023-11-19T20:19:32;12.00;;;3.87;;
11135;SDS011;5622;50.840;4.948;2023-11-19T20:22:00;16.93;;;4.97;;
11135;SDS011;5622;50.840;4.948;2023-11-19T20:24:27;13.17;;;4.47;;
11135;SDS011;5622;50.840;4.948;2023-11-19T20:26:56;13.10;;;4.17;;
11135;SDS011;5622;50.840;4.948;2023-11-19T20:29:23;14.53;;;4.13;;
11135;SDS011;5622;50.840;4.948;2023-11-19T20:31:50;12.27;;;3.50;;
11135;SDS011;5622;50.840;4.948;2023-11-19T20:34:17;7.63;;;3.13;;
11135;SDS011;5622;50.840;4.948;2023-11-19T20:36:45;16.13;;;4.13;;
11135;SDS011;5622;50.840;4.948;2023-11-19T20:39:12;12.80;;;3.47;;
11135;SDS011;5622;50.840;4.948;2023-11-19T20:41:39;17.10;;;3.90;;
11135;SDS011;5622;50.840;4.948;2023-11-19T20:44:10;8.43;;;2.87;;
11135;SDS011;5622;50.840;4.948;2023-11-19T20:46:37;16.97;;;3.80;;
11135;SDS011;5622;50.840;4.948;2023-11-19T20:49:04;11.17;;;3.40;;
11135;SDS011;5622;50.840;4.948;2023-11-19T20:51:31;11.87;;;3.63;;
11135;SDS011;5622;50.840;4.948;2023-11-19T20:53:59;15.60;;;3.67;;
11135;SDS011;5622;50.840;4.948;2023-11-19T20:56:26;12.30;;;3.00;;
11135;SDS011;5622;50.840;4.948;2023-11-19T20:58:54;14.47;;;4.50;;
11135;SDS011;5622;50.840;4.948;2023-11-19T21:01:23;8.00;;;3.10;;
11135;SDS011;5622;50.840;4.948;2023-11-19T21:03:51;10.47;;;2.80;;
11135;SDS011;5622;50.840;4.948;2023-11-19T21:06:21;11.57;;;2.87;;
11135;SDS011;5622;50.840;4.948;2023-11-19T21:08:49;8.83;;;2.83;;
11135;SDS011;5622;50.840;4.948;2023-11-19T21:11:16;8.13;;;2.70;;
11135;SDS011;5622;50.840;4.948;2023-11-19T21:13:44;9.30;;;2.50;;
11135;SDS011;5622;50.840;4.948;2023-11-19T21:16:12;12.07;;;3.20;;
11135;SDS011;5622;50.840;4.948;2023-11-19T21:18:41;13.20;;;3.00;;
11135;SDS011;5622;50.840;4.948;2023-11-19T21:21:08;8.93;;;2.50;;
11135;SDS011;5622;50.840;4.948;2023-11-19T21:23:37;11.73;;;2.73;;
11135;SDS011;5622;50.840;4.948;2023-11-19T21:26:06;11.03;;;2.70;;
11135;SDS011;5622;50.840;4.948;2023-11-19T21:28:33;7.17;;;2.73;;
11135;SDS011;5622;50.840;4.948;2023-11-19T21:31:03;5.20;;;2.80;;
11135;SDS011;5622;50.840;4.948;2023-11-19T21:33:31;11.10;;;2.63;;
11135;SDS011;5622;50.840;4.948;2023-11-19T21:36:00;8.07;;;2.57;;
11135;SDS011;5622;50.840;4.948;2023-11-19T21:38:27;8.70;;;2.77;;
11135;SDS011;5622;50.840;4.948;2023-11-19T21:40:54;8.17;;;2.60;;
11135;SDS011;5622;50.840;4.948;2023-11-19T21:43:22;6.30;;;2.37;;
11135;SDS011;5622;50.840;4.948;2023-11-19T21:45:49;7.63;;;2.33;;
11135;SDS011;5622;50.840;4.948;2023-11-19T21:48:18;8.53;;;3.00;;
11135;SDS011;5622;50.840;4.948;2023-11-19T21:50:46;9.30;;;2.90;;
11135;SDS011;5622;50.840;4.948;2023-11-19T21:53:17;8.07;;;2.57;;
11135;SDS011;5622;50.840;4.948;2023-11-19T21:55:44;7.80;;;2.50;;
11135;SDS011;5622;50.840;4.948;2023-11-19T21:58:12;12.80;;;2.80;;
11135;SDS011;5622;50.840;4.948;2023-11-19T22:00:39;12.20;;;2.90;;
11135;SDS011;5622;50.840;4.948;2023-11-19T22:03:06;14.33;;;2.87;;
11135;SDS011;5622;50.840;4.948;2023-11-19T22:05:34;10.63;;;2.50;;
11135;SDS011;5622;50.840;4.948;2023-11-19T22:08:01;8.10;;;3.13;;
11135;SDS011;5622;50.840;4.948;2023-11-19T22:10:30;10.13;;;3.10;;
11135;SDS011;5622;50.840;4.948;2023-11-19T22:12:57;10.40;;;2.90;;
11135;SDS011;5622;50.840;4.948;2023-11-19T22:15:25;13.87;;;3.00;;
11135;SDS011;5622;50.840;4.948;2023-11-19T22:17:52;9.73;;;2.70;;
11135;SDS011;5622;50.840;4.948;2023-11-19T22:20:20;14.47;;;3.03;;
11135;SDS011;5622;50.840;4.948;2023-11-19T22:22:47;13.87;;;3.30;;
11135;SDS011;5622;50.840;4.948;2023-11-19T22:25:16;12.30;;;3.00;;
11135;SDS011;5622;50.840;4.948;2023-11-19T22:27:45;12.37;;;3.53;;
11135;SDS011;5622;50.840;4.948;2023-11-19T22:30:13;14.97;;;3.50;;
11135;SDS011;5622;50.840;4.948;2023-11-19T22:32:40;17.60;;;3.37;;
11135;SDS011;5622;50.840;4.948;2023-11-19T22:35:07;10.70;;;3.10;;
11135;SDS011;5622;50.840;4.948;2023-11-19T22:37:36;15.23;;;2.57;;
11135;SDS011;5622;50.840;4.948;2023-11-19T22:40:03;11.27;;;3.40;;
11135;SDS011;5622;50.840;4.948;2023-11-19T22:42:33;11.80;;;2.87;;
11135;SDS011;5622;50.840;4.948;2023-11-19T22:45:03;11.37;;;2.73;;
11135;SDS011;5622;50.840;4.948;2023-11-19T22:47:31;10.63;;;3.30;;
11135;SDS011;5622;50.840;4.948;2023-11-19T22:49:58;11.57;;;3.50;;
11135;SDS011;5622;50.840;4.948;2023-11-19T22:52:26;13.30;;;3.33;;
11135;SDS011;5622;50.840;4.948;2023-11-19T22:54:53;14.50;;;3.30;;
11135;SDS011;5622;50.840;4.948;2023-11-19T22:57:22;13.63;;;3.10;;
11135;SDS011;5622;50.840;4.948;2023-11-19T22:59:49;15.83;;;3.80;;
11135;SDS011;5622;50.840;4.948;2023-11-19T23:02:18;12.67;;;3.67;;
11135;SDS011;5622;50.840;4.948;2023-11-19T23:04:45;14.47;;;3.93;;
11135;SDS011;5622;50.840;4.948;2023-11-19T23:07:12;11.23;;;3.00;;
11135;SDS011;5622;50.840;4.948;2023-11-19T23:09:39;19.37;;;3.43;;
11135;SDS011;5622;50.840;4.948;2023-11-19T23:12:06;12.83;;;3.13;;
11135;SDS011;5622;50.840;4.948;2023-11-19T23:14:35;14.50;;;3.17;;
11135;SDS011;5622;50.840;4.948;2023-11-19T23:17:03;12.60;;;2.70;;
11135;SDS011;5622;50.840;4.948;2023-11-19T23:19:34;14.37;;;2.70;;
11135;SDS011;5622;50.840;4.948;2023-11-19T23:22:01;11.47;;;2.53;;
11135;SDS011;5622;50.840;4.948;2023-11-19T23:24:28;10.60;;;3.00;;
11135;SDS011;5622;50.840;4.948;2023-11-19T23:26:55;15.80;;;3.37;;
11135;SDS011;5622;50.840;4.948;2023-11-19T23:29:24;12.10;;;3.13;;
11135;SDS011;5622;50.840;4.948;2023-11-19T23:31:51;13.37;;;3.20;;
11135;SDS011;5622;50.840;4.948;2023-11-19T23:34:18;11.87;;;2.90;;
11135;SDS011;5622;50.840;4.948;2023-11-19T23:36:49;11.90;;;3.20;;
11135;SDS011;5622;50.840;4.948;2023-11-19T23:39:18;13.00;;;2.60;;
11135;SDS011;5622;50.840;4.948;2023-11-19T23:41:45;9.13;;;2.37;;
11135;SDS011;5622;50.840;4.948;2023-11-19T23:44:12;10.07;;;2.77;;
11135;SDS011;5622;50.840;4.948;2023-11-19T23:46:43;17.20;;;3.13;;
11135;SDS011;5622;50.840;4.948;2023-11-19T23:49:10;10.60;;;3.10;;
11135;SDS011;5622;50.840;4.948;2023-11-19T23:51:38;17.93;;;2.93;;
11135;SDS011;5622;50.840;4.948;2023-11-19T23:54:06;12.47;;;3.10;;
11135;SDS011;5622;50.840;4.948;2023-11-19T23:56:34;14.53;;;3.07;;
11135;SDS011;5622;50.840;4.948;2023-11-19T23:59:01;12.67;;;3.10;;
